createdAt,value
2023-12-28T00:00:34.654Z,15.33
2023-12-28T00:03:02.954Z,13.55
2023-12-28T00:05:31.032Z,14.38
2023-12-28T00:07:59.908Z,12.52
2023-12-28T00:10:29.627Z,13.88
2023-12-28T00:12:57.848Z,12.40
2023-12-28T00:15:26.030Z,14.35
2023-12-28T00:17:54.956Z,15.35
2023-12-28T00:20:23.146Z,14.15
2023-12-28T00:22:51.335Z,10.77
2023-12-28T00:25:19.438Z,11.80
2023-12-28T00:27:47.697Z,11.52
2023-12-28T00:30:16.215Z,11.68
2023-12-28T00:32:47.766Z,11.38
2023-12-28T00:35:16.414Z,12.43
2023-12-28T00:37:44.565Z,15.63
2023-12-28T00:40:13.237Z,12.57
2023-12-28T00:42:42.653Z,11.00
2023-12-28T00:45:11.666Z,12.00
2023-12-28T00:47:40.142Z,14.45
2023-12-28T00:50:08.494Z,14.83
2023-12-28T00:52:37.076Z,16.65
2023-12-28T00:55:05.386Z,13.82
2023-12-28T00:57:34.004Z,13.10
2023-12-28T01:00:03.358Z,12.80
2023-12-28T01:02:31.826Z,10.70
2023-12-28T01:05:00.138Z,11.90
2023-12-28T01:07:28.583Z,12.90
2023-12-28T01:10:00.501Z,13.38
2023-12-28T01:12:29.163Z,12.52
2023-12-28T01:14:57.462Z,12.07
2023-12-28T01:17:25.741Z,11.52
2023-12-28T01:19:53.771Z,12.25
2023-12-28T01:22:22.017Z,13.60
2023-12-28T01:24:51.326Z,18.05
2023-12-28T01:27:20.539Z,12.83
2023-12-28T01:29:48.477Z,15.02
2023-12-28T01:32:19.916Z,15.32
2023-12-28T01:34:48.141Z,15.32
2023-12-28T01:37:16.419Z,14.55
2023-12-28T01:39:46.224Z,17.33
2023-12-28T01:42:14.238Z,14.32
2023-12-28T01:44:42.774Z,13.63
2023-12-28T01:47:10.937Z,13.40
2023-12-28T01:49:39.260Z,13.93
2023-12-28T01:52:08.638Z,13.27
2023-12-28T01:54:37.650Z,12.77
2023-12-28T01:57:05.865Z,13.60
2023-12-28T01:59:34.029Z,11.85
2023-12-28T02:02:02.418Z,13.45
2023-12-28T02:04:31.035Z,13.73
2023-12-28T02:06:59.831Z,14.07
2023-12-28T02:09:28.044Z,14.85
2023-12-28T02:11:56.487Z,15.20
2023-12-28T02:14:27.854Z,12.65
2023-12-28T02:17:14.226Z,12.87
2023-12-28T02:19:45.497Z,14.25
2023-12-28T02:22:20.279Z,13.18
2023-12-28T02:25:10.885Z,16.52
2023-12-28T02:27:40.343Z,11.85
2023-12-28T02:30:09.524Z,13.13
2023-12-28T02:32:37.807Z,13.63
2023-12-28T02:35:10.856Z,13.00
2023-12-28T02:37:40.646Z,13.23
2023-12-28T02:40:09.797Z,13.00
2023-12-28T02:42:38.493Z,17.33
2023-12-28T02:45:08.069Z,14.68
2023-12-28T02:47:36.613Z,16.05
2023-12-28T02:50:04.769Z,13.38
2023-12-28T02:52:32.943Z,11.70
2023-12-28T02:55:01.066Z,12.73
2023-12-28T02:57:30.465Z,16.23
2023-12-28T03:00:02.718Z,13.50
2023-12-28T03:02:30.841Z,14.95
2023-12-28T03:04:58.873Z,13.45
2023-12-28T03:07:27.307Z,14.97
2023-12-28T03:09:55.905Z,14.10
2023-12-28T03:12:24.357Z,13.95
2023-12-28T03:14:52.898Z,16.30
2023-12-28T03:17:21.333Z,15.02
2023-12-28T03:19:50.034Z,13.47
2023-12-28T03:22:19.423Z,16.23
2023-12-28T03:24:48.865Z,14.85
2023-12-28T03:27:17.396Z,13.93
2023-12-28T03:29:45.580Z,15.43
2023-12-28T03:32:13.739Z,13.83
2023-12-28T03:34:41.929Z,16.95
2023-12-28T03:37:12.404Z,14.27
2023-12-28T03:39:40.581Z,15.05
2023-12-28T03:42:08.599Z,15.02
2023-12-28T03:44:36.833Z,14.30
2023-12-28T03:47:05.040Z,16.67
2023-12-28T03:49:33.484Z,15.82
2023-12-28T03:52:01.782Z,21.45
2023-12-28T03:54:30.913Z,19.17
2023-12-28T03:56:59.326Z,19.17
2023-12-28T03:59:27.533Z,21.00
2023-12-28T04:01:55.562Z,15.98
2023-12-28T04:04:23.743Z,17.00
2023-12-28T04:06:51.928Z,17.13
2023-12-28T04:09:21.028Z,16.77
2023-12-28T04:11:50.128Z,17.73
2023-12-28T04:14:18.367Z,16.15
2023-12-28T04:16:46.729Z,15.43
2023-12-28T04:19:15.941Z,16.98
2023-12-28T04:21:46.167Z,18.03
2023-12-28T04:24:14.276Z,18.40
2023-12-28T04:26:42.440Z,18.55
2023-12-28T04:29:10.634Z,18.48
2023-12-28T04:31:43.518Z,19.60
2023-12-28T04:34:11.970Z,18.97
2023-12-28T04:36:48.192Z,21.17
2023-12-28T04:39:16.882Z,18.63
2023-12-28T04:41:44.860Z,20.33
2023-12-28T04:44:13.021Z,17.52
2023-12-28T04:46:45.910Z,20.90
2023-12-28T04:49:14.210Z,18.30
2023-12-28T04:51:45.962Z,22.25
2023-12-28T04:54:14.390Z,23.55
2023-12-28T04:56:42.502Z,20.88
2023-12-28T04:59:10.740Z,17.73
2023-12-28T05:01:48.310Z,18.00
2023-12-28T05:04:18.025Z,20.10
2023-12-28T05:06:46.745Z,18.27
2023-12-28T05:09:16.071Z,19.15
2023-12-28T05:11:45.421Z,21.67
2023-12-28T05:14:13.536Z,19.17
2023-12-28T05:16:41.687Z,18.92
2023-12-28T05:19:11.142Z,19.60
2023-12-28T05:21:40.587Z,21.55
2023-12-28T05:24:09.295Z,18.33
2023-12-28T05:26:37.389Z,17.90
2023-12-28T05:29:05.534Z,15.85
2023-12-28T05:31:33.981Z,18.63
2023-12-28T05:34:02.386Z,18.05
2023-12-28T05:36:31.081Z,16.33
2023-12-28T05:38:59.313Z,17.33
2023-12-28T05:41:27.458Z,17.10
2023-12-28T05:43:55.675Z,18.13
2023-12-28T05:46:23.912Z,19.85
2023-12-28T05:48:52.108Z,14.90
2023-12-28T05:51:20.526Z,18.25
2023-12-28T05:53:48.757Z,19.70
2023-12-28T05:56:16.831Z,18.23
2023-12-28T05:58:44.941Z,16.90
2023-12-28T06:01:13.218Z,16.27
2023-12-28T06:03:41.634Z,19.65
2023-12-28T06:06:09.708Z,17.63
2023-12-28T06:08:37.869Z,17.95
2023-12-28T06:11:07.142Z,17.50
2023-12-28T06:13:35.329Z,16.23
2023-12-28T06:16:03.991Z,16.83
2023-12-28T06:18:33.016Z,18.77
2023-12-28T06:21:01.502Z,22.98
2023-12-28T06:23:29.625Z,19.25
2023-12-28T06:25:57.741Z,20.27
2023-12-28T06:28:26.128Z,23.02
2023-12-28T06:30:54.835Z,21.52
2023-12-28T06:33:23.053Z,21.70
2023-12-28T06:35:54.698Z,17.05
2023-12-28T06:38:23.005Z,17.83
2023-12-28T06:40:51.125Z,21.10
2023-12-28T06:43:19.242Z,19.92
2023-12-28T06:45:47.193Z,21.80
2023-12-28T06:48:15.725Z,20.98
2023-12-28T06:50:43.811Z,21.13
2023-12-28T06:53:11.947Z,20.83
2023-12-28T06:55:40.232Z,16.85
2023-12-28T06:58:08.981Z,17.83
2023-12-28T07:00:37.354Z,18.25
2023-12-28T07:03:05.716Z,23.93
2023-12-28T07:05:33.973Z,21.67
2023-12-28T07:08:02.364Z,18.75
2023-12-28T07:10:31.585Z,19.50
2023-12-28T07:12:59.790Z,17.85
2023-12-28T07:15:27.801Z,20.70
2023-12-28T07:17:56.168Z,19.88
2023-12-28T07:20:24.310Z,22.02
2023-12-28T07:22:54.885Z,17.83
2023-12-28T07:25:23.488Z,18.45
2023-12-28T07:27:51.902Z,17.87
2023-12-28T07:30:20.279Z,18.27
2023-12-28T07:32:48.385Z,19.48
2023-12-28T07:35:16.762Z,19.20
2023-12-28T07:37:46.147Z,20.17
2023-12-28T07:40:15.221Z,19.00
2023-12-28T07:42:43.473Z,19.90
2023-12-28T07:45:14.370Z,22.23
2023-12-28T07:47:43.303Z,29.40
2023-12-28T07:50:12.299Z,23.40
2023-12-28T07:52:40.604Z,32.50
2023-12-28T07:55:08.966Z,30.10
2023-12-28T07:57:38.423Z,32.80
2023-12-28T08:00:07.368Z,27.70
2023-12-28T08:02:36.018Z,27.67
2023-12-28T08:05:04.380Z,28.33
2023-12-28T08:07:32.535Z,19.55
2023-12-28T08:10:02.506Z,18.77
2023-12-28T08:12:30.874Z,16.95
2023-12-28T08:14:58.941Z,16.40
2023-12-28T08:17:27.184Z,18.23
2023-12-28T08:19:55.292Z,16.60
2023-12-28T08:22:23.466Z,14.55
2023-12-28T08:24:51.726Z,20.13
2023-12-28T08:27:19.973Z,14.63
2023-12-28T08:29:48.132Z,12.83
2023-12-28T08:32:16.568Z,14.32
2023-12-28T08:34:44.865Z,14.95
2023-12-28T08:37:13.444Z,17.10
2023-12-28T08:39:42.145Z,14.98
2023-12-28T08:42:10.679Z,20.50
2023-12-28T08:44:38.829Z,17.25
2023-12-28T08:47:07.210Z,14.52
2023-12-28T08:49:35.721Z,20.27
2023-12-28T08:52:04.749Z,13.68
2023-12-28T08:54:33.063Z,15.93
2023-12-28T08:57:01.112Z,14.02
2023-12-28T08:59:29.090Z,15.60
2023-12-28T09:01:57.483Z,14.13
2023-12-28T09:04:25.759Z,16.88
2023-12-28T09:06:54.682Z,17.50
2023-12-28T09:09:23.224Z,15.43
2023-12-28T09:11:52.618Z,14.27
2023-12-28T09:14:20.698Z,14.60
2023-12-28T09:16:49.854Z,11.60
2023-12-28T09:19:18.016Z,16.23
2023-12-28T09:21:46.409Z,11.80
2023-12-28T09:24:14.523Z,13.02
2023-12-28T09:26:43.192Z,13.80
2023-12-28T09:29:11.377Z,13.32
2023-12-28T09:31:43.333Z,13.00
2023-12-28T09:34:11.615Z,16.48
2023-12-28T09:36:40.165Z,16.33
2023-12-28T09:39:11.234Z,16.55
2023-12-28T09:41:42.271Z,13.80
2023-12-28T09:44:14.918Z,10.93
2023-12-28T09:46:47.682Z,10.82
2023-12-28T09:49:16.178Z,10.65
2023-12-28T09:51:44.451Z,11.23
2023-12-28T09:54:12.902Z,11.23
2023-12-28T09:56:42.490Z,10.77
2023-12-28T09:59:11.395Z,12.98
2023-12-28T10:01:39.519Z,11.63
2023-12-28T10:04:10.354Z,14.43
2023-12-28T10:06:38.549Z,11.70
2023-12-28T10:09:13.298Z,12.20
2023-12-28T10:11:42.776Z,10.65
2023-12-28T10:14:11.892Z,8.05
2023-12-28T10:16:42.990Z,9.35
2023-12-28T10:19:11.756Z,8.68
2023-12-28T10:21:41.929Z,10.50
2023-12-28T10:24:12.207Z,11.57
2023-12-28T10:26:40.390Z,11.68
2023-12-28T10:29:08.654Z,11.55
2023-12-28T10:31:37.454Z,10.32
2023-12-28T10:34:06.453Z,11.20
2023-12-28T10:36:38.035Z,9.73
2023-12-28T10:39:07.248Z,9.32
2023-12-28T10:41:36.998Z,8.45
2023-12-28T10:44:09.026Z,8.70
2023-12-28T10:46:45.038Z,7.33
2023-12-28T10:49:14.764Z,8.90
2023-12-28T10:51:49.982Z,9.60
2023-12-28T10:54:36.239Z,7.20
2023-12-28T10:57:11.750Z,6.65
2023-12-28T10:59:58.242Z,7.73
2023-12-28T11:02:30.735Z,7.35
2023-12-28T11:04:59.671Z,10.13
2023-12-28T11:07:34.418Z,7.13
2023-12-28T11:10:04.603Z,9.63
2023-12-28T11:12:33.663Z,6.63
2023-12-28T11:15:02.480Z,7.90
2023-12-28T11:17:33.105Z,7.35
2023-12-28T11:20:01.846Z,8.20
2023-12-28T11:22:30.800Z,6.97
2023-12-28T11:25:00.157Z,9.00
2023-12-28T11:27:36.334Z,7.45
2023-12-28T11:30:07.877Z,7.05
2023-12-28T11:32:38.243Z,8.68
2023-12-28T11:35:12.628Z,6.57
2023-12-28T11:37:43.200Z,7.03
2023-12-28T11:40:18.032Z,7.15
2023-12-28T11:42:56.291Z,5.53
2023-12-28T11:45:26.739Z,8.35
2023-12-28T11:48:02.858Z,5.88
2023-12-28T11:50:31.483Z,6.93
2023-12-28T11:53:00.421Z,6.43
2023-12-28T11:55:29.105Z,7.07
2023-12-28T11:57:57.486Z,6.22
2023-12-28T12:00:27.619Z,5.78
2023-12-28T12:02:57.831Z,6.53
2023-12-28T12:05:26.462Z,6.22
2023-12-28T12:07:55.811Z,6.13
2023-12-28T12:10:24.603Z,7.18
2023-12-28T12:12:56.013Z,7.03
2023-12-28T12:15:24.453Z,5.77
2023-12-28T12:17:52.840Z,6.85
2023-12-28T12:20:22.088Z,7.18
2023-12-28T12:22:51.193Z,6.22
2023-12-28T12:25:21.369Z,5.47
2023-12-28T12:27:50.040Z,7.80
2023-12-28T12:30:18.675Z,6.20
2023-12-28T12:32:47.998Z,7.20
2023-12-28T12:35:16.613Z,6.63
2023-12-28T12:37:46.033Z,7.43
2023-12-28T12:40:16.916Z,7.07
2023-12-28T12:42:46.178Z,5.55
2023-12-28T12:45:14.410Z,8.48
2023-12-28T12:47:42.993Z,7.80
2023-12-28T12:50:12.488Z,8.27
2023-12-28T12:52:45.044Z,8.13
2023-12-28T12:55:16.874Z,7.03
2023-12-28T12:57:45.288Z,8.68
2023-12-28T13:00:13.952Z,7.35
2023-12-28T13:02:42.425Z,8.73
2023-12-28T13:05:10.702Z,8.77
2023-12-28T13:07:40.309Z,12.10
2023-12-28T13:10:08.984Z,9.85
2023-12-28T13:12:37.424Z,8.73
2023-12-28T13:15:07.889Z,6.63
2023-12-28T13:17:36.457Z,8.97
2023-12-28T13:20:07.508Z,11.05
2023-12-28T13:22:35.952Z,11.05
2023-12-28T13:25:05.709Z,15.75
2023-12-28T13:27:35.362Z,9.77
2023-12-28T13:30:03.742Z,9.07
2023-12-28T13:32:32.048Z,10.52
2023-12-28T13:35:03.033Z,9.57
2023-12-28T13:37:32.353Z,10.63
2023-12-28T13:40:00.740Z,9.07
2023-12-28T13:42:29.215Z,7.97
2023-12-28T13:44:57.621Z,9.63
2023-12-28T13:47:26.057Z,7.47
2023-12-28T13:49:54.366Z,8.43
2023-12-28T13:52:22.851Z,8.43
2023-12-28T13:54:51.191Z,9.60
2023-12-28T13:57:19.549Z,9.75
2023-12-28T13:59:47.653Z,8.80
2023-12-28T14:02:16.000Z,9.02
2023-12-28T14:04:44.206Z,6.07
2023-12-28T14:07:13.659Z,9.10
2023-12-28T14:09:41.957Z,10.07
2023-12-28T14:12:10.876Z,8.07
2023-12-28T14:14:39.043Z,10.27
2023-12-28T14:17:07.309Z,10.18
2023-12-28T14:19:35.947Z,9.37
2023-12-28T14:22:04.703Z,8.90
2023-12-28T14:24:33.096Z,8.48
2023-12-28T14:27:01.376Z,8.57
2023-12-28T14:29:29.699Z,9.60
2023-12-28T14:31:58.581Z,8.50
2023-12-28T14:34:28.246Z,8.05
2023-12-28T14:36:57.217Z,7.80
2023-12-28T14:39:25.437Z,7.35
2023-12-28T14:41:53.648Z,8.05
2023-12-28T14:44:21.823Z,7.50
2023-12-28T14:46:50.111Z,9.93
2023-12-28T14:49:18.488Z,8.88
2023-12-28T14:51:46.898Z,10.23
2023-12-28T14:54:15.493Z,8.77
2023-12-28T14:56:49.064Z,9.13
2023-12-28T14:59:23.504Z,8.93
2023-12-28T15:01:52.401Z,6.35
2023-12-28T15:04:24.660Z,10.10
2023-12-28T15:06:56.290Z,6.45
2023-12-28T15:09:24.842Z,9.20
2023-12-28T15:11:53.296Z,7.40
2023-12-28T15:14:22.480Z,8.38
2023-12-28T15:16:50.968Z,7.82
2023-12-28T15:19:19.669Z,9.40
2023-12-28T15:21:48.473Z,8.27
2023-12-28T15:24:17.053Z,8.43
2023-12-28T15:26:45.189Z,7.47
2023-12-28T15:29:14.187Z,10.88
2023-12-28T15:31:42.344Z,11.18
2023-12-28T15:34:10.938Z,11.97
2023-12-28T15:36:39.122Z,11.80
2023-12-28T15:39:07.568Z,11.02
2023-12-28T15:41:35.761Z,12.02
2023-12-28T15:44:04.065Z,10.63
2023-12-28T15:46:32.549Z,12.13
2023-12-28T15:49:00.901Z,10.18
2023-12-28T15:51:29.279Z,11.65
2023-12-28T15:53:57.800Z,10.93
2023-12-28T15:56:25.958Z,11.50
2023-12-28T15:58:54.319Z,12.03
2023-12-28T16:01:22.657Z,12.27
2023-12-28T16:03:51.329Z,9.02
2023-12-28T16:06:19.700Z,11.93
2023-12-28T16:08:49.520Z,9.55
2023-12-28T16:11:17.889Z,9.10
2023-12-28T16:13:46.606Z,9.38
2023-12-28T16:16:15.383Z,9.02
2023-12-28T16:18:43.958Z,10.77
2023-12-28T16:21:13.299Z,14.75
2023-12-28T16:23:41.720Z,17.73
2023-12-28T16:26:10.514Z,15.48
2023-12-28T16:28:38.696Z,19.38
2023-12-28T16:31:07.179Z,25.25
2023-12-28T16:33:35.723Z,24.25
2023-12-28T16:36:04.872Z,28.73
2023-12-28T16:38:33.064Z,32.15
2023-12-28T16:41:01.484Z,30.77
2023-12-28T16:43:32.142Z,27.30
2023-12-28T16:46:03.119Z,31.75
2023-12-28T16:48:31.870Z,31.20
2023-12-28T16:51:03.703Z,29.38
2023-12-28T16:53:32.233Z,26.88
2023-12-28T16:56:00.634Z,30.48
2023-12-28T16:58:28.956Z,28.67
2023-12-28T17:00:57.277Z,33.83
2023-12-28T17:03:26.019Z,29.98
2023-12-28T17:05:54.406Z,32.30
2023-12-28T17:08:23.290Z,27.55
2023-12-28T17:10:51.689Z,32.60
2023-12-28T17:13:24.114Z,27.80
2023-12-28T17:15:54.330Z,24.00
2023-12-28T17:18:25.581Z,28.08
2023-12-28T17:20:55.062Z,27.20
2023-12-28T17:23:32.039Z,26.48
2023-12-28T17:26:15.725Z,30.75
2023-12-28T17:28:49.361Z,30.77
2023-12-28T17:31:20.159Z,37.72
2023-12-28T17:33:48.781Z,34.33
2023-12-28T17:36:17.289Z,33.33
2023-12-28T17:38:46.702Z,33.08
2023-12-28T17:41:18.219Z,29.20
2023-12-28T17:43:56.679Z,29.88
2023-12-28T17:46:45.879Z,32.97
2023-12-28T17:49:16.830Z,25.83
2023-12-28T17:51:47.257Z,26.65
2023-12-28T17:54:15.714Z,21.57
2023-12-28T17:56:43.979Z,24.33
2023-12-28T17:59:12.814Z,26.52
2023-12-28T18:01:41.120Z,26.70
2023-12-28T18:04:09.642Z,23.60
2023-12-28T18:06:37.883Z,26.60
2023-12-28T18:09:06.293Z,26.98
2023-12-28T18:11:34.514Z,25.80
2023-12-28T18:14:02.893Z,27.48
2023-12-28T18:16:31.328Z,26.27
2023-12-28T18:19:02.196Z,24.53
2023-12-28T18:21:30.627Z,25.63
2023-12-28T18:23:58.930Z,23.45
2023-12-28T18:26:28.957Z,23.27
2023-12-28T18:28:57.474Z,24.25
2023-12-28T18:31:25.988Z,23.97
2023-12-28T18:33:54.654Z,23.95
2023-12-28T18:36:23.038Z,23.05
2023-12-28T18:38:51.599Z,23.20
2023-12-28T18:41:19.873Z,23.48
2023-12-28T18:43:48.283Z,23.07
2023-12-28T18:46:16.516Z,22.95
2023-12-28T18:48:44.926Z,23.58
2023-12-28T18:51:14.069Z,19.05
2023-12-28T18:53:45.557Z,21.80
2023-12-28T18:56:16.941Z,19.27
2023-12-28T18:58:45.478Z,18.73
2023-12-28T19:01:14.154Z,20.25
2023-12-28T19:03:47.125Z,21.15
2023-12-28T19:06:17.539Z,17.58
2023-12-28T19:08:45.829Z,18.30
2023-12-28T19:11:14.855Z,18.92
2023-12-28T19:13:46.406Z,19.25
2023-12-28T19:16:22.013Z,26.00
2023-12-28T19:18:51.669Z,26.65
2023-12-28T19:21:24.309Z,30.30
2023-12-28T19:23:53.497Z,27.05
2023-12-28T19:26:21.966Z,29.48
2023-12-28T19:28:50.617Z,29.98
2023-12-28T19:31:20.038Z,27.27
2023-12-28T19:33:49.007Z,26.73
2023-12-28T19:36:17.616Z,25.67
2023-12-28T19:38:45.857Z,22.60
2023-12-28T19:41:14.373Z,26.67
2023-12-28T19:43:43.364Z,27.05
2023-12-28T19:46:11.683Z,27.63
2023-12-28T19:48:40.090Z,19.08
2023-12-28T19:51:08.256Z,22.10
2023-12-28T19:53:37.627Z,20.70
2023-12-28T19:56:05.964Z,20.33
2023-12-28T19:58:34.653Z,19.30
2023-12-28T20:01:03.028Z,26.10
2023-12-28T20:03:31.405Z,20.35
2023-12-28T20:06:00.228Z,20.05
2023-12-28T20:08:28.738Z,20.05
2023-12-28T20:10:57.010Z,17.80
2023-12-28T20:13:25.412Z,17.73
2023-12-28T20:15:53.963Z,20.98
2023-12-28T20:18:22.534Z,20.27
2023-12-28T20:20:52.664Z,19.48
2023-12-28T20:23:21.113Z,19.20
2023-12-28T20:25:49.250Z,37.22
2023-12-28T20:28:18.272Z,20.98
2023-12-28T20:30:46.875Z,25.75
2023-12-28T20:33:15.474Z,19.27
2023-12-28T20:35:47.856Z,20.30
2023-12-28T20:38:16.526Z,20.58
2023-12-28T20:40:44.821Z,22.17
2023-12-28T20:43:13.306Z,21.15
2023-12-28T20:45:41.541Z,20.17
2023-12-28T20:48:10.020Z,21.67
2023-12-28T20:50:38.566Z,23.77
2023-12-28T20:53:07.656Z,19.70
2023-12-28T20:55:36.648Z,18.42
2023-12-28T20:58:05.329Z,16.67
2023-12-28T21:00:33.946Z,18.77
2023-12-28T21:03:02.302Z,19.25
2023-12-28T21:05:30.575Z,28.25
2023-12-28T21:07:59.298Z,20.42
2023-12-28T21:10:30.254Z,19.00
2023-12-28T21:13:05.690Z,20.53
2023-12-28T21:15:34.187Z,18.88
2023-12-28T21:18:12.616Z,16.92
2023-12-28T21:21:02.259Z,17.83
2023-12-28T21:23:37.870Z,20.45
2023-12-28T21:26:06.369Z,14.73
2023-12-28T21:28:34.880Z,13.63
2023-12-28T21:31:03.534Z,15.45
2023-12-28T21:33:32.433Z,12.73
2023-12-28T21:36:01.129Z,13.93
2023-12-28T21:38:30.332Z,12.87
2023-12-28T21:40:58.892Z,13.00
2023-12-28T21:43:27.296Z,9.52
2023-12-28T21:45:55.563Z,10.82
2023-12-28T21:48:24.164Z,9.15
2023-12-28T21:50:52.438Z,14.07
2023-12-28T21:53:20.782Z,11.93
2023-12-28T21:55:48.969Z,13.60
2023-12-28T21:58:17.402Z,12.57
2023-12-28T22:00:45.694Z,11.95
2023-12-28T22:03:14.419Z,9.33
2023-12-28T22:05:42.663Z,11.13
2023-12-28T22:08:11.267Z,11.02
2023-12-28T22:10:39.451Z,9.05
2023-12-28T22:13:08.158Z,9.60
2023-12-28T22:15:36.884Z,8.60
2023-12-28T22:18:07.743Z,11.10
2023-12-28T22:20:36.174Z,8.73
2023-12-28T22:23:04.580Z,12.73
2023-12-28T22:25:32.916Z,9.27
2023-12-28T22:28:01.506Z,8.60
2023-12-28T22:30:33.415Z,9.60
2023-12-28T22:33:02.230Z,11.07
2023-12-28T22:35:30.696Z,11.60
2023-12-28T22:37:59.284Z,12.98
2023-12-28T22:40:27.761Z,12.93
2023-12-28T22:42:57.249Z,11.98
2023-12-28T22:45:25.609Z,9.27
2023-12-28T22:47:54.336Z,10.02
2023-12-28T22:50:22.794Z,9.10
2023-12-28T22:52:51.647Z,10.97
2023-12-28T22:55:20.233Z,12.85
2023-12-28T22:57:48.712Z,9.32
2023-12-28T23:00:22.343Z,9.57
2023-12-28T23:02:52.544Z,11.93
2023-12-28T23:05:21.222Z,10.90
2023-12-28T23:07:49.610Z,10.68
2023-12-28T23:10:18.186Z,10.40
2023-12-28T23:12:46.373Z,11.63
2023-12-28T23:15:14.887Z,10.75
2023-12-28T23:17:43.086Z,11.33
2023-12-28T23:20:11.530Z,10.30
2023-12-28T23:22:42.488Z,10.52
2023-12-28T23:25:10.814Z,9.98
2023-12-28T23:27:39.333Z,9.75
2023-12-28T23:30:10.900Z,9.93
2023-12-28T23:32:39.342Z,8.73
2023-12-28T23:35:08.105Z,11.93
2023-12-28T23:37:36.946Z,10.38
2023-12-28T23:40:05.632Z,11.15
2023-12-28T23:42:34.001Z,12.10
2023-12-28T23:45:02.301Z,9.93
2023-12-28T23:47:30.534Z,9.63
2023-12-28T23:49:58.797Z,10.82
2023-12-28T23:52:27.149Z,12.20
2023-12-28T23:54:55.570Z,9.77
2023-12-28T23:57:24.230Z,10.18
2023-12-28T23:59:52.592Z,9.73
